sensor_id;sensor_type;location;lat;lon;timestamp;pressure;altitude;pressure_sealevel;temperature;humidity
54600;BME280;40500;51.084;16.958;2023-04-28T00:01:01;100785.98;;;5.38;100.00
54600;BME280;40500;51.084;16.958;2023-04-28T00:03:32;100786.79;;;5.32;100.00
54600;BME280;40500;51.084;16.958;2023-04-28T00:06:03;100782.56;;;5.28;100.00
54600;BME280;40500;51.084;16.958;2023-04-28T00:08:34;100775.27;;;5.28;100.00
54600;BME280;40500;51.084;16.958;2023-04-28T00:11:04;100778.22;;;5.29;100.00
54600;BME280;40500;51.084;16.958;2023-04-28T00:13:38;100782.77;;;5.30;100.00
54600;BME280;40500;51.084;16.958;2023-04-28T00:16:09;100782.79;;;5.32;100.00
54600;BME280;40500;51.084;16.958;2023-04-28T00:18:39;100784.92;;;5.36;100.00
54600;BME280;40500;51.084;16.958;2023-04-28T00:21:09;100779.40;;;5.39;100.00
54600;BME280;40500;51.084;16.958;2023-04-28T00:23:40;100774.38;;;5.40;100.00
54600;BME280;40500;51.084;16.958;2023-04-28T00:26:10;100768.66;;;5.43;100.00
54600;BME280;40500;51.084;16.958;2023-04-28T00:28:43;100766.09;;;5.46;100.00
54600;BME280;40500;51.084;16.958;2023-04-28T00:31:14;100762.13;;;5.48;100.00
54600;BME280;40500;51.084;16.958;2023-04-28T00:33:45;100760.24;;;5.51;100.00
54600;BME280;40500;51.084;16.958;2023-04-28T00:36:15;100765.11;;;5.51;100.00
54600;BME280;40500;51.084;16.958;2023-04-28T00:38:46;100764.41;;;5.50;100.00
54600;BME280;40500;51.084;16.958;2023-04-28T00:41:16;100765.63;;;5.50;100.00
54600;BME280;40500;51.084;16.958;2023-04-28T00:43:48;100766.85;;;5.51;100.00
54600;BME280;40500;51.084;16.958;2023-04-28T00:46:21;100766.15;;;5.51;100.00
54600;BME280;40500;51.084;16.958;2023-04-28T00:48:52;100762.52;;;5.52;100.00
54600;BME280;40500;51.084;16.958;2023-04-28T00:51:23;100762.20;;;5.55;100.00
54600;BME280;40500;51.084;16.958;2023-04-28T00:53:54;100761.16;;;5.57;100.00
54600;BME280;40500;51.084;16.958;2023-04-28T00:56:26;100756.68;;;5.59;100.00
54600;BME280;40500;51.084;16.958;2023-04-28T00:58:59;100750.10;;;5.61;100.00
54600;BME280;40500;51.084;16.958;2023-04-28T01:01:30;100747.52;;;5.62;100.00
54600;BME280;40500;51.084;16.958;2023-04-28T01:04:01;100745.95;;;5.64;100.00
54600;BME280;40500;51.084;16.958;2023-04-28T01:06:33;100744.08;;;5.66;100.00
54600;BME280;40500;51.084;16.958;2023-04-28T01:09:05;100741.13;;;5.67;100.00
54600;BME280;40500;51.084;16.958;2023-04-28T01:11:36;100741.48;;;5.68;100.00
54600;BME280;40500;51.084;16.958;2023-04-28T01:14:12;100739.57;;;5.69;100.00
54600;BME280;40500;51.084;16.958;2023-04-28T01:16:44;100740.64;;;5.71;100.00
54600;BME280;40500;51.084;16.958;2023-04-28T01:19:19;100738.92;;;5.73;100.00
54600;BME280;40500;51.084;16.958;2023-04-28T01:21:51;100735.81;;;5.74;100.00
54600;BME280;40500;51.084;16.958;2023-04-28T01:24:22;100731.48;;;5.77;100.00
54600;BME280;40500;51.084;16.958;2023-04-28T01:26:53;100729.05;;;5.78;100.00
54600;BME280;40500;51.084;16.958;2023-04-28T01:29:23;100729.77;;;5.80;100.00
54600;BME280;40500;51.084;16.958;2023-04-28T01:31:55;100728.57;;;5.81;100.00
54600;BME280;40500;51.084;16.958;2023-04-28T01:34:25;100723.00;;;5.81;100.00
54600;BME280;40500;51.084;16.958;2023-04-28T01:36:56;100721.97;;;5.81;100.00
54600;BME280;40500;51.084;16.958;2023-04-28T01:39:26;100718.66;;;5.80;100.00
54600;BME280;40500;51.084;16.958;2023-04-28T01:41:57;100719.54;;;5.80;100.00
54600;BME280;40500;51.084;16.958;2023-04-28T01:44:28;100722.13;;;5.79;100.00
54600;BME280;40500;51.084;16.958;2023-04-28T01:46:58;100723.88;;;5.80;100.00
54600;BME280;40500;51.084;16.958;2023-04-28T01:49:29;100721.95;;;5.79;100.00
54600;BME280;40500;51.084;16.958;2023-04-28T01:51:59;100720.55;;;5.78;100.00
54600;BME280;40500;51.084;16.958;2023-04-28T01:54:31;100718.13;;;5.79;100.00
54600;BME280;40500;51.084;16.958;2023-04-28T01:57:02;100717.96;;;5.79;100.00
54600;BME280;40500;51.084;16.958;2023-04-28T01:59:33;100718.65;;;5.79;100.00
54600;BME280;40500;51.084;16.958;2023-04-28T02:02:03;100718.64;;;5.79;100.00
54600;BME280;40500;51.084;16.958;2023-04-28T02:04:34;100719.88;;;5.80;100.00
54600;BME280;40500;51.084;16.958;2023-04-28T02:07:07;100712.06;;;5.80;100.00
54600;BME280;40500;51.084;16.958;2023-04-28T02:09:37;100711.52;;;5.80;100.00
54600;BME280;40500;51.084;16.958;2023-04-28T02:12:08;100713.30;;;5.82;100.00
54600;BME280;40500;51.084;16.958;2023-04-28T02:14:38;100705.80;;;5.81;100.00
54600;BME280;40500;51.084;16.958;2023-04-28T02:17:08;100711.36;;;5.81;100.00
54600;BME280;40500;51.084;16.958;2023-04-28T02:19:39;100705.63;;;5.80;100.00
54600;BME280;40500;51.084;16.958;2023-04-28T02:22:09;100712.23;;;5.81;100.00
54600;BME280;40500;51.084;16.958;2023-04-28T02:24:42;100707.36;;;5.80;100.00
54600;BME280;40500;51.084;16.958;2023-04-28T02:27:12;100707.35;;;5.78;100.00
54600;BME280;40500;51.084;16.958;2023-04-28T02:29:42;100704.36;;;5.76;100.00
54600;BME280;40500;51.084;16.958;2023-04-28T02:32:13;100702.08;;;5.72;100.00
54600;BME280;40500;51.084;16.958;2023-04-28T02:34:43;100704.50;;;5.70;100.00
54600;BME280;40500;51.084;16.958;2023-04-28T02:37:14;100699.79;;;5.69;100.00
54600;BME280;40500;51.084;16.958;2023-04-28T02:39:44;100700.84;;;5.69;100.00
54600;BME280;40500;51.084;16.958;2023-04-28T02:42:16;100699.80;;;5.70;100.00
54600;BME280;40500;51.084;16.958;2023-04-28T02:44:46;100694.93;;;5.70;100.00
54600;BME280;40500;51.084;16.958;2023-04-28T02:47:17;100692.85;;;5.70;100.00
54600;BME280;40500;51.084;16.958;2023-04-28T02:49:47;100693.73;;;5.71;100.00
54600;BME280;40500;51.084;16.958;2023-04-28T02:52:18;100695.30;;;5.71;100.00
54600;BME280;40500;51.084;16.958;2023-04-28T02:54:49;100691.97;;;5.69;100.00
54600;BME280;40500;51.084;16.958;2023-04-28T02:57:22;100694.73;;;5.67;100.00
54600;BME280;40500;51.084;16.958;2023-04-28T02:59:53;100697.67;;;5.65;100.00
54600;BME280;40500;51.084;16.958;2023-04-28T03:02:24;100696.95;;;5.62;100.00
54600;BME280;40500;51.084;16.958;2023-04-28T03:04:55;100695.37;;;5.59;100.00
54600;BME280;40500;51.084;16.958;2023-04-28T03:07:26;100697.59;;;5.57;100.00
54600;BME280;40500;51.084;16.958;2023-04-28T03:09:56;100699.48;;;5.53;100.00
54600;BME280;40500;51.084;16.958;2023-04-28T03:12:27;100697.70;;;5.49;100.00
54600;BME280;40500;51.084;16.958;2023-04-28T03:14:57;100699.40;;;5.46;100.00
54600;BME280;40500;51.084;16.958;2023-04-28T03:17:29;100696.77;;;5.42;100.00
54600;BME280;40500;51.084;16.958;2023-04-28T03:20:00;100696.92;;;5.41;100.00
54600;BME280;40500;51.084;16.958;2023-04-28T03:22:31;100701.04;;;5.36;100.00
54600;BME280;40500;51.084;16.958;2023-04-28T03:25:02;100698.56;;;5.31;100.00
54600;BME280;40500;51.084;16.958;2023-04-28T03:27:35;100698.02;;;5.28;100.00
54600;BME280;40500;51.084;16.958;2023-04-28T03:30:08;100697.98;;;5.25;100.00
54600;BME280;40500;51.084;16.958;2023-04-28T03:32:39;100696.91;;;5.23;100.00
54600;BME280;40500;51.084;16.958;2023-04-28T03:35:10;100697.38;;;5.18;100.00
54600;BME280;40500;51.084;16.958;2023-04-28T03:37:41;100696.65;;;5.14;100.00
54600;BME280;40500;51.084;16.958;2023-04-28T03:40:12;100697.98;;;5.09;100.00
54600;BME280;40500;51.084;16.958;2023-04-28T03:43:03;100700.21;;;5.07;100.00
54600;BME280;40500;51.084;16.958;2023-04-28T03:45:38;100697.57;;;5.04;100.00
54600;BME280;40500;51.084;16.958;2023-04-28T03:48:09;100698.40;;;5.02;100.00
54600;BME280;40500;51.084;16.958;2023-04-28T03:50:40;100694.92;;;4.99;100.00
54600;BME280;40500;51.084;16.958;2023-04-28T03:53:11;100696.31;;;5.00;100.00
54600;BME280;40500;51.084;16.958;2023-04-28T03:55:42;100693.69;;;4.99;100.00
54600;BME280;40500;51.084;16.958;2023-04-28T03:58:13;100689.20;;;5.00;100.00
54600;BME280;40500;51.084;16.958;2023-04-28T04:00:44;100698.05;;;5.01;100.00
54600;BME280;40500;51.084;16.958;2023-04-28T04:03:14;100695.27;;;5.00;100.00
54600;BME280;40500;51.084;16.958;2023-04-28T04:05:46;100698.42;;;5.03;100.00
54600;BME280;40500;51.084;16.958;2023-04-28T04:08:17;100697.95;;;5.06;100.00
54600;BME280;40500;51.084;16.958;2023-04-28T04:10:48;100692.09;;;5.10;100.00
54600;BME280;40500;51.084;16.958;2023-04-28T04:13:18;100695.45;;;5.16;100.00
54600;BME280;40500;51.084;16.958;2023-04-28T04:15:49;100692.88;;;5.19;100.00
54600;BME280;40500;51.084;16.958;2023-04-28T04:18:22;100694.45;;;5.20;100.00
54600;BME280;40500;51.084;16.958;2023-04-28T04:21:18;100688.75;;;5.23;100.00
54600;BME280;40500;51.084;16.958;2023-04-28T04:23:51;100688.95;;;5.24;100.00
54600;BME280;40500;51.084;16.958;2023-04-28T04:26:21;100684.61;;;5.25;100.00
54600;BME280;40500;51.084;16.958;2023-04-28T04:28:52;100680.80;;;5.26;100.00
54600;BME280;40500;51.084;16.958;2023-04-28T04:31:23;100682.36;;;5.26;100.00
54600;BME280;40500;51.084;16.958;2023-04-28T04:33:53;100679.26;;;5.29;100.00
54600;BME280;40500;51.084;16.958;2023-04-28T04:36:25;100678.41;;;5.30;100.00
54600;BME280;40500;51.084;16.958;2023-04-28T04:38:55;100674.42;;;5.31;100.00
54600;BME280;40500;51.084;16.958;2023-04-28T04:41:27;100677.20;;;5.31;100.00
54600;BME280;40500;51.084;16.958;2023-04-28T04:44:12;100677.75;;;5.33;100.00
54600;BME280;40500;51.084;16.958;2023-04-28T04:46:46;100679.18;;;5.38;100.00
54600;BME280;40500;51.084;16.958;2023-04-28T04:49:17;100675.58;;;5.43;100.00
54600;BME280;40500;51.084;16.958;2023-04-28T04:51:47;100675.80;;;5.48;100.00
54600;BME280;40500;51.084;16.958;2023-04-28T04:54:18;100681.93;;;5.54;100.00
54600;BME280;40500;51.084;16.958;2023-04-28T04:56:49;100683.68;;;5.56;100.00
54600;BME280;40500;51.084;16.958;2023-04-28T04:59:29;100675.58;;;5.60;100.00
54600;BME280;40500;51.084;16.958;2023-04-28T05:02:06;100677.50;;;5.63;100.00
54600;BME280;40500;51.084;16.958;2023-04-28T05:04:38;100679.78;;;5.66;100.00
54600;BME280;40500;51.084;16.958;2023-04-28T05:07:09;100674.95;;;5.70;100.00
54600;BME280;40500;51.084;16.958;2023-04-28T05:09:41;100671.68;;;5.73;100.00
54600;BME280;40500;51.084;16.958;2023-04-28T05:12:12;100671.71;;;5.79;100.00
54600;BME280;40500;51.084;16.958;2023-04-28T05:14:44;100664.96;;;5.80;100.00
54600;BME280;40500;51.084;16.958;2023-04-28T05:17:14;100662.89;;;5.82;100.00
54600;BME280;40500;51.084;16.958;2023-04-28T05:19:45;100664.11;;;5.83;100.00
54600;BME280;40500;51.084;16.958;2023-04-28T05:22:16;100664.48;;;5.84;100.00
54600;BME280;40500;51.084;16.958;2023-04-28T05:24:46;100660.84;;;5.87;100.00
54600;BME280;40500;51.084;16.958;2023-04-28T05:27:17;100661.24;;;5.93;100.00
54600;BME280;40500;51.084;16.958;2023-04-28T05:29:47;100663.38;;;6.00;100.00
54600;BME280;40500;51.084;16.958;2023-04-28T05:32:18;100663.27;;;6.07;100.00
54600;BME280;40500;51.084;16.958;2023-04-28T05:34:49;100661.23;;;6.14;100.00
54600;BME280;40500;51.084;16.958;2023-04-28T05:37:20;100663.02;;;6.22;100.00
54600;BME280;40500;51.084;16.958;2023-04-28T05:39:52;100663.74;;;6.28;100.00
54600;BME280;40500;51.084;16.958;2023-04-28T05:42:22;100661.52;;;6.36;100.00
54600;BME280;40500;51.084;16.958;2023-04-28T05:44:53;100664.52;;;6.40;100.00
54600;BME280;40500;51.084;16.958;2023-04-28T05:47:24;100661.40;;;6.44;100.00
54600;BME280;40500;51.084;16.958;2023-04-28T05:49:54;100658.48;;;6.48;100.00
54600;BME280;40500;51.084;16.958;2023-04-28T05:52:25;100654.33;;;6.58;100.00
54600;BME280;40500;51.084;16.958;2023-04-28T05:54:55;100650.92;;;6.72;100.00
54600;BME280;40500;51.084;16.958;2023-04-28T05:57:26;100651.83;;;6.84;100.00
54600;BME280;40500;51.084;16.958;2023-04-28T06:00:02;100651.48;;;6.89;100.00
54600;BME280;40500;51.084;16.958;2023-04-28T06:02:40;100652.73;;;6.96;100.00
54600;BME280;40500;51.084;16.958;2023-04-28T06:05:11;100648.23;;;7.05;100.00
54600;BME280;40500;51.084;16.958;2023-04-28T06:07:42;100645.30;;;7.21;100.00
54600;BME280;40500;51.084;16.958;2023-04-28T06:10:13;100648.81;;;7.38;100.00
54600;BME280;40500;51.084;16.958;2023-04-28T06:12:44;100647.77;;;7.44;100.00
54600;BME280;40500;51.084;16.958;2023-04-28T06:15:14;100644.99;;;7.51;100.00
54600;BME280;40500;51.084;16.958;2023-04-28T06:17:45;100635.75;;;7.55;100.00
54600;BME280;40500;51.084;16.958;2023-04-28T06:20:17;100635.42;;;7.67;100.00
54600;BME280;40500;51.084;16.958;2023-04-28T06:22:48;100637.85;;;7.77;100.00
54600;BME280;40500;51.084;16.958;2023-04-28T06:25:19;100633.99;;;7.87;100.00
54600;BME280;40500;51.084;16.958;2023-04-28T06:27:51;100628.75;;;7.94;100.00
54600;BME280;40500;51.084;16.958;2023-04-28T06:30:22;100631.71;;;7.99;100.00
54600;BME280;40500;51.084;16.958;2023-04-28T06:32:53;100632.39;;;8.08;100.00
54600;BME280;40500;51.084;16.958;2023-04-28T06:35:26;100627.48;;;8.21;100.00
54600;BME280;40500;51.084;16.958;2023-04-28T06:37:57;100628.31;;;8.39;100.00
54600;BME280;40500;51.084;16.958;2023-04-28T06:40:27;100626.19;;;8.56;100.00
54600;BME280;40500;51.084;16.958;2023-04-28T06:42:59;100628.55;;;8.72;100.00
54600;BME280;40500;51.084;16.958;2023-04-28T06:45:40;100623.94;;;8.87;100.00
54600;BME280;40500;51.084;16.958;2023-04-28T06:48:11;100622.36;;;8.86;100.00
54600;BME280;40500;51.084;16.958;2023-04-28T06:50:41;100623.96;;;8.82;100.00
54600;BME280;40500;51.084;16.958;2023-04-28T06:53:12;100619.77;;;8.81;100.00
54600;BME280;40500;51.084;16.958;2023-04-28T06:55:43;100615.55;;;8.86;100.00
54600;BME280;40500;51.084;16.958;2023-04-28T06:58:13;100614.48;;;8.91;100.00
54600;BME280;40500;51.084;16.958;2023-04-28T07:00:44;100614.95;;;9.02;100.00
54600;BME280;40500;51.084;16.958;2023-04-28T07:03:15;100614.56;;;9.07;100.00
54600;BME280;40500;51.084;16.958;2023-04-28T07:05:45;100610.19;;;9.11;100.00
54600;BME280;40500;51.084;16.958;2023-04-28T07:08:16;100605.94;;;9.18;100.00
54600;BME280;40500;51.084;16.958;2023-04-28T07:10:47;100600.80;;;9.28;100.00
54600;BME280;40500;51.084;16.958;2023-04-28T07:13:17;100595.63;;;9.41;100.00
54600;BME280;40500;51.084;16.958;2023-04-28T07:15:47;100592.42;;;9.48;100.00
54600;BME280;40500;51.084;16.958;2023-04-28T07:18:18;100590.57;;;9.59;100.00
54600;BME280;40500;51.084;16.958;2023-04-28T07:20:48;100592.73;;;9.72;100.00
54600;BME280;40500;51.084;16.958;2023-04-28T07:23:18;100588.80;;;9.80;100.00
54600;BME280;40500;51.084;16.958;2023-04-28T07:25:49;100585.93;;;9.88;100.00
54600;BME280;40500;51.084;16.958;2023-04-28T07:28:20;100585.29;;;9.99;100.00
54600;BME280;40500;51.084;16.958;2023-04-28T07:30:51;100584.34;;;10.06;100.00
54600;BME280;40500;51.084;16.958;2023-04-28T07:33:21;100580.57;;;10.15;100.00
54600;BME280;40500;51.084;16.958;2023-04-28T07:35:52;100578.20;;;10.24;100.00
54600;BME280;40500;51.084;16.958;2023-04-28T07:38:22;100578.63;;;10.35;100.00
54600;BME280;40500;51.084;16.958;2023-04-28T07:40:53;100571.52;;;10.43;100.00
54600;BME280;40500;51.084;16.958;2023-04-28T07:43:23;100574.60;;;10.49;100.00
54600;BME280;40500;51.084;16.958;2023-04-28T07:45:54;100566.50;;;10.51;100.00
54600;BME280;40500;51.084;16.958;2023-04-28T07:48:25;100564.53;;;10.55;100.00
54600;BME280;40500;51.084;16.958;2023-04-28T07:50:56;100560.23;;;10.62;100.00
54600;BME280;40500;51.084;16.958;2023-04-28T07:53:27;100555.55;;;10.73;100.00
54600;BME280;40500;51.084;16.958;2023-04-28T07:55:57;100554.52;;;10.83;100.00
54600;BME280;40500;51.084;16.958;2023-04-28T07:58:29;100551.48;;;10.88;100.00
54600;BME280;40500;51.084;16.958;2023-04-28T08:01:00;100552.45;;;10.92;100.00
54600;BME280;40500;51.084;16.958;2023-04-28T08:03:31;100548.16;;;10.98;100.00
54600;BME280;40500;51.084;16.958;2023-04-28T08:06:02;100546.30;;;11.05;100.00
54600;BME280;40500;51.084;16.958;2023-04-28T08:08:33;100545.80;;;11.15;100.00
54600;BME280;40500;51.084;16.958;2023-04-28T08:11:04;100545.98;;;11.25;100.00
54600;BME280;40500;51.084;16.958;2023-04-28T08:13:36;100541.23;;;11.37;100.00
54600;BME280;40500;51.084;16.958;2023-04-28T08:16:07;100541.90;;;11.50;100.00
54600;BME280;40500;51.084;16.958;2023-04-28T08:18:37;100544.02;;;11.58;100.00
54600;BME280;40500;51.084;16.958;2023-04-28T08:21:09;100542.49;;;11.65;100.00
54600;BME280;40500;51.084;16.958;2023-04-28T08:23:39;100535.27;;;11.66;100.00
54600;BME280;40500;51.084;16.958;2023-04-28T08:26:10;100532.06;;;11.69;100.00
54600;BME280;40500;51.084;16.958;2023-04-28T08:28:40;100533.17;;;11.76;100.00
54600;BME280;40500;51.084;16.958;2023-04-28T08:31:11;100525.98;;;11.85;100.00
54600;BME280;40500;51.084;16.958;2023-04-28T08:33:41;100525.48;;;11.95;100.00
54600;BME280;40500;51.084;16.958;2023-04-28T08:36:16;100523.83;;;11.99;100.00
54600;BME280;40500;51.084;16.958;2023-04-28T08:38:47;100517.86;;;11.98;100.00
54600;BME280;40500;51.084;16.958;2023-04-28T08:41:17;100516.65;;;12.06;100.00
54600;BME280;40500;51.084;16.958;2023-04-28T08:43:49;100511.27;;;12.11;100.00
54600;BME280;40500;51.084;16.958;2023-04-28T08:46:21;100509.01;;;12.19;100.00
54600;BME280;40500;51.084;16.958;2023-04-28T08:48:59;100506.93;;;12.26;100.00
54600;BME280;40500;51.084;16.958;2023-04-28T08:51:34;100502.58;;;12.33;100.00
54600;BME280;40500;51.084;16.958;2023-04-28T08:54:08;100502.20;;;12.42;100.00
54600;BME280;40500;51.084;16.958;2023-04-28T08:56:57;100499.19;;;12.51;100.00
54600;BME280;40500;51.084;16.958;2023-04-28T08:59:28;100501.73;;;12.55;100.00
54600;BME280;40500;51.084;16.958;2023-04-28T09:02:00;100503.23;;;12.59;100.00
54600;BME280;40500;51.084;16.958;2023-04-28T09:04:30;100496.27;;;12.64;100.00
54600;BME280;40500;51.084;16.958;2023-04-28T09:07:01;100494.52;;;12.72;100.00
54600;BME280;40500;51.084;16.958;2023-04-28T09:09:31;100488.17;;;12.79;100.00
54600;BME280;40500;51.084;16.958;2023-04-28T09:12:06;100488.50;;;12.88;100.00
54600;BME280;40500;51.084;16.958;2023-04-28T09:14:38;100484.88;;;12.99;100.00
54600;BME280;40500;51.084;16.958;2023-04-28T09:17:12;100482.27;;;13.07;100.00
54600;BME280;40500;51.084;16.958;2023-04-28T09:19:44;100476.02;;;13.10;100.00
54600;BME280;40500;51.084;16.958;2023-04-28T09:22:15;100472.02;;;13.15;100.00
54600;BME280;40500;51.084;16.958;2023-04-28T09:24:54;100471.05;;;13.19;100.00
54600;BME280;40500;51.084;16.958;2023-04-28T09:27:28;100467.98;;;13.22;100.00
54600;BME280;40500;51.084;16.958;2023-04-28T09:29:58;100464.02;;;13.25;100.00
54600;BME280;40500;51.084;16.958;2023-04-28T09:32:29;100462.10;;;13.33;100.00
54600;BME280;40500;51.084;16.958;2023-04-28T09:35:00;100460.13;;;13.40;100.00
54600;BME280;40500;51.084;16.958;2023-04-28T09:37:33;100456.06;;;13.48;100.00
54600;BME280;40500;51.084;16.958;2023-04-28T09:40:09;100445.98;;;13.57;100.00
54600;BME280;40500;51.084;16.958;2023-04-28T09:42:41;100448.38;;;13.65;100.00
54600;BME280;40500;51.084;16.958;2023-04-28T09:45:13;100442.84;;;13.74;100.00
54600;BME280;40500;51.084;16.958;2023-04-28T09:47:45;100438.11;;;13.80;100.00
54600;BME280;40500;51.084;16.958;2023-04-28T09:50:17;100434.98;;;13.84;100.00
54600;BME280;40500;51.084;16.958;2023-04-28T09:52:56;100434.74;;;13.93;100.00
54600;BME280;40500;51.084;16.958;2023-04-28T09:55:28;100428.63;;;14.03;100.00
54600;BME280;40500;51.084;16.958;2023-04-28T09:58:04;100422.79;;;14.10;100.00
54600;BME280;40500;51.084;16.958;2023-04-28T10:00:36;100422.19;;;14.18;100.00
54600;BME280;40500;51.084;16.958;2023-04-28T10:03:09;100417.70;;;14.27;100.00
54600;BME280;40500;51.084;16.958;2023-04-28T10:05:41;100413.65;;;14.38;100.00
54600;BME280;40500;51.084;16.958;2023-04-28T10:08:13;100408.15;;;14.50;100.00
54600;BME280;40500;51.084;16.958;2023-04-28T10:10:43;100408.98;;;14.58;100.00
54600;BME280;40500;51.084;16.958;2023-04-28T10:13:15;100399.98;;;14.70;100.00
54600;BME280;40500;51.084;16.958;2023-04-28T10:15:46;100395.81;;;14.79;100.00
54600;BME280;40500;51.084;16.958;2023-04-28T10:18:17;100393.90;;;14.83;100.00
54600;BME280;40500;51.084;16.958;2023-04-28T10:20:52;100388.02;;;14.90;100.00
54600;BME280;40500;51.084;16.958;2023-04-28T10:23:39;100382.11;;;14.97;100.00
54600;BME280;40500;51.084;16.958;2023-04-28T10:26:17;100369.98;;;15.07;100.00
54600;BME280;40500;51.084;16.958;2023-04-28T10:28:51;100370.09;;;15.19;100.00
54600;BME280;40500;51.084;16.958;2023-04-28T10:31:22;100368.38;;;15.28;100.00
54600;BME280;40500;51.084;16.958;2023-04-28T10:33:53;100356.95;;;15.36;100.00
54600;BME280;40500;51.084;16.958;2023-04-28T10:36:49;100355.67;;;15.47;100.00
54600;BME280;40500;51.084;16.958;2023-04-28T10:39:21;100353.00;;;15.62;100.00
54600;BME280;40500;51.084;16.958;2023-04-28T10:41:53;100347.21;;;15.76;100.00
54600;BME280;40500;51.084;16.958;2023-04-28T10:44:43;100343.92;;;15.88;100.00
54600;BME280;40500;51.084;16.958;2023-04-28T10:47:13;100337.94;;;15.97;100.00
54600;BME280;40500;51.084;16.958;2023-04-28T10:50:05;100340.09;;;16.05;100.00
54600;BME280;40500;51.084;16.958;2023-04-28T10:52:51;100336.89;;;16.18;100.00
54600;BME280;40500;51.084;16.958;2023-04-28T10:55:29;100334.73;;;16.33;99.91
54600;BME280;40500;51.084;16.958;2023-04-28T10:58:31;100329.83;;;16.45;100.00
54600;BME280;40500;51.084;16.958;2023-04-28T11:01:24;100322.47;;;16.60;99.66
54600;BME280;40500;51.084;16.958;2023-04-28T11:03:56;100328.31;;;16.81;98.05
54600;BME280;40500;51.084;16.958;2023-04-28T11:06:34;100325.29;;;16.94;94.95
54600;BME280;40500;51.084;16.958;2023-04-28T11:12:12;100316.24;;;17.31;95.52
54600;BME280;40500;51.084;16.958;2023-04-28T11:14:44;100317.02;;;17.49;94.02
54600;BME280;40500;51.084;16.958;2023-04-28T11:17:14;100319.70;;;17.71;95.17
54600;BME280;40500;51.084;16.958;2023-04-28T11:19:47;100316.11;;;17.91;90.62
54600;BME280;40500;51.084;16.958;2023-04-28T11:22:20;100313.19;;;17.97;90.11
54600;BME280;40500;51.084;16.958;2023-04-28T11:24:59;100310.52;;;18.04;90.04
54600;BME280;40500;51.084;16.958;2023-04-28T11:27:32;100303.15;;;18.14;87.80
54600;BME280;40500;51.084;16.958;2023-04-28T11:30:18;100302.30;;;18.20;87.59
54600;BME280;40500;51.084;16.958;2023-04-28T11:32:49;100299.49;;;18.24;85.12
54600;BME280;40500;51.084;16.958;2023-04-28T11:35:20;100296.00;;;18.19;85.82
54600;BME280;40500;51.084;16.958;2023-04-28T11:38:03;100286.29;;;18.14;83.73
54600;BME280;40500;51.084;16.958;2023-04-28T11:40:33;100283.76;;;18.19;83.44
54600;BME280;40500;51.084;16.958;2023-04-28T11:43:04;100285.60;;;18.17;81.63
54600;BME280;40500;51.084;16.958;2023-04-28T11:45:34;100283.02;;;18.12;80.38
54600;BME280;40500;51.084;16.958;2023-04-28T11:48:22;100277.35;;;18.12;78.72
54600;BME280;40500;51.084;16.958;2023-04-28T11:50:52;100276.73;;;18.25;80.09
54600;BME280;40500;51.084;16.958;2023-04-28T11:53:41;100273.04;;;18.35;80.32
54600;BME280;40500;51.084;16.958;2023-04-28T11:56:11;100275.84;;;18.53;78.93
54600;BME280;40500;51.084;16.958;2023-04-28T11:58:42;100267.11;;;18.68;79.37
54600;BME280;40500;51.084;16.958;2023-04-28T12:01:13;100264.21;;;18.83;77.63
54600;BME280;40500;51.084;16.958;2023-04-28T12:03:45;100263.27;;;18.94;77.25
54600;BME280;40500;51.084;16.958;2023-04-28T12:06:18;100262.89;;;19.02;74.77
54600;BME280;40500;51.084;16.958;2023-04-28T12:08:49;100262.08;;;19.01;74.28
54600;BME280;40500;51.084;16.958;2023-04-28T12:11:19;100259.94;;;18.90;71.98
54600;BME280;40500;51.084;16.958;2023-04-28T12:14:07;100250.08;;;18.82;72.81
54600;BME280;40500;51.084;16.958;2023-04-28T12:16:42;100256.38;;;18.84;71.94
54600;BME280;40500;51.084;16.958;2023-04-28T12:19:13;100256.90;;;19.40;72.23
54600;BME280;40500;51.084;16.958;2023-04-28T12:21:58;100246.86;;;21.24;70.47
54600;BME280;40500;51.084;16.958;2023-04-28T12:24:30;100249.63;;;22.15;64.70
54600;BME280;40500;51.084;16.958;2023-04-28T12:27:17;100247.49;;;21.34;59.29
54600;BME280;40500;51.084;16.958;2023-04-28T12:29:50;100242.50;;;21.60;62.49
54600;BME280;40500;51.084;16.958;2023-04-28T12:32:35;100244.95;;;21.88;62.07
54600;BME280;40500;51.084;16.958;2023-04-28T12:35:08;100231.80;;;22.98;61.77
54600;BME280;40500;51.084;16.958;2023-04-28T12:37:39;100227.61;;;24.44;56.65
54600;BME280;40500;51.084;16.958;2023-04-28T12:40:11;100228.41;;;24.38;53.80
54600;BME280;40500;51.084;16.958;2023-04-28T12:42:42;100228.90;;;23.72;57.03
54600;BME280;40500;51.084;16.958;2023-04-28T12:45:13;100222.50;;;24.64;56.59
54600;BME280;40500;51.084;16.958;2023-04-28T12:47:44;100212.84;;;26.60;54.14
54600;BME280;40500;51.084;16.958;2023-04-28T12:50:16;100200.54;;;28.38;48.65
54600;BME280;40500;51.084;16.958;2023-04-28T12:52:47;100202.80;;;29.05;46.43
54600;BME280;40500;51.084;16.958;2023-04-28T12:55:17;100200.89;;;29.42;44.98
54600;BME280;40500;51.084;16.958;2023-04-28T12:57:48;100194.27;;;30.33;44.18
54600;BME280;40500;51.084;16.958;2023-04-28T13:00:19;100190.50;;;30.89;39.74
54600;BME280;40500;51.084;16.958;2023-04-28T13:02:51;100184.71;;;31.73;39.48
54600;BME280;40500;51.084;16.958;2023-04-28T13:05:22;100181.52;;;32.92;38.38
54600;BME280;40500;51.084;16.958;2023-04-28T13:07:53;100183.06;;;33.73;35.90